Time,TemperatureF,DewpointF,PressureIn,WindDirection,WindDirectionDegrees,WindSpeedMPH,WindSpeedGustMPH,Humidity,HourlyPrecipIn,Conditions,Clouds,dailyrainin,SoftwareType,DateUTC
2013-02-10 00:01:00,15.0,13.0,29.53,West,271,5.0,9.0,90,0.00,,,0.00,,2013-02-10 07:01:00,
2013-02-10 00:11:00,15.0,13.0,29.53,West,271,5.0,9.0,90,0.00,,,0.00,,2013-02-10 07:11:00,
2013-02-10 00:21:00,18.0,11.0,29.53,West,281,12.0,26.0,74,0.00,,,0.00,,2013-02-10 07:21:00,
2013-02-10 00:31:00,19.0,10.0,29.54,WNW,286,12.0,19.0,66,0.00,,,0.00,,2013-02-10 07:31:00,
2013-02-10 00:41:00,19.0,10.0,29.54,WNW,286,12.0,19.0,66,0.00,,,0.00,,2013-02-10 07:41:00,
2013-02-10 00:51:00,20.0,9.0,29.55,WNW,285,11.0,29.0,62,0.00,,,0.00,,2013-02-10 07:51:00,
2013-02-10 01:01:00,19.0,9.0,29.56,WNW,297,7.0,25.0,63,0.00,,,0.00,,2013-02-10 08:01:00,
2013-02-10 01:11:00,19.0,9.0,29.56,WNW,297,7.0,25.0,63,0.00,,,0.00,,2013-02-10 08:11:00,
2013-02-10 01:21:00,20.0,9.0,29.56,WNW,302,15.0,27.0,61,0.00,,,0.00,,2013-02-10 08:21:00,
2013-02-10 01:32:00,20.0,8.0,29.56,WNW,286,14.0,32.0,60,0.00,,,0.00,,2013-02-10 08:32:00,
2013-02-10 01:43:00,20.0,8.0,29.56,WNW,286,14.0,32.0,60,0.00,,,0.00,,2013-02-10 08:43:00,
2013-02-10 01:52:00,20.0,8.0,29.57,West,278,18.0,26.0,58,0.00,,,0.00,,2013-02-10 08:52:00,
2013-02-10 02:02:00,20.0,8.0,29.58,WNW,285,15.0,38.0,59,0.00,,,0.00,,2013-02-10 09:02:00,
2013-02-10 02:11:00,20.0,8.0,29.58,WNW,285,15.0,38.0,59,0.00,,,0.00,,2013-02-10 09:11:00,
2013-02-10 02:21:00,19.0,8.0,29.58,NW,305,13.0,30.0,61,0.00,,,0.00,,2013-02-10 09:21:00,
2013-02-10 02:32:00,19.0,8.0,29.59,WNW,290,4.0,13.0,62,0.00,,,0.00,,2013-02-10 09:32:00,
2013-02-10 02:41:00,19.0,8.0,29.59,WNW,290,4.0,13.0,62,0.00,,,0.00,,2013-02-10 09:41:00,
2013-02-10 02:51:00,19.0,8.0,29.59,WNW,285,12.0,20.0,61,0.00,,,0.00,,2013-02-10 09:51:00,
2013-02-10 03:01:00,19.0,7.0,29.60,WNW,290,18.0,35.0,59,0.00,,,0.00,,2013-02-10 10:01:00,
2013-02-10 03:11:00,19.0,7.0,29.60,WNW,290,18.0,35.0,59,0.00,,,0.00,,2013-02-10 10:11:00,
2013-02-10 03:21:00,20.0,7.0,29.61,NW,322,8.0,27.0,57,0.00,,,0.00,,2013-02-10 10:21:00,
2013-02-10 03:31:00,20.0,8.0,29.62,WNW,288,11.0,30.0,58,0.00,,,0.00,,2013-02-10 10:31:00,
2013-02-10 03:41:00,20.0,8.0,29.62,WNW,288,11.0,30.0,58,0.00,,,0.00,,2013-02-10 10:41:00,
2013-02-10 03:51:00,20.0,7.0,29.62,SSW,204,12.0,23.0,56,0.00,,,0.00,,2013-02-10 10:51:00,
2013-02-10 04:01:00,20.0,7.0,29.62,WNW,286,13.0,23.0,56,0.00,,,0.00,,2013-02-10 11:01:00,
2013-02-10 04:11:00,20.0,7.0,29.62,WNW,286,13.0,23.0,56,0.00,,,0.00,,2013-02-10 11:11:00,
2013-02-10 04:21:00,20.0,7.0,29.62,WNW,295,9.0,19.0,56,0.00,,,0.00,,2013-02-10 11:21:00,
2013-02-10 04:32:00,20.0,6.0,29.63,NW,311,15.0,26.0,54,0.00,,,0.00,,2013-02-10 11:32:00,
2013-02-10 04:42:00,20.0,6.0,29.63,NW,311,15.0,26.0,54,0.00,,,0.00,,2013-02-10 11:42:00,
2013-02-10 04:52:00,19.0,6.0,29.65,WNW,300,6.0,20.0,55,0.00,,,0.00,,2013-02-10 11:52:00,
2013-02-10 05:02:00,19.0,5.0,29.66,NW,319,9.0,24.0,54,0.00,,,0.00,,2013-02-10 12:02:00,
2013-02-10 05:12:00,19.0,5.0,29.66,NW,319,9.0,24.0,54,0.00,,,0.00,,2013-02-10 12:12:00,
2013-02-10 05:21:00,19.0,6.0,29.67,NW,304,4.0,9.0,57,0.00,,,0.00,,2013-02-10 12:21:00,
2013-02-10 05:32:00,18.0,6.0,29.68,NNW,327,0.0,4.0,60,0.00,,,0.00,,2013-02-10 12:32:00,
2013-02-10 05:42:00,18.0,6.0,29.68,NNW,327,0.0,4.0,60,0.00,,,0.00,,2013-02-10 12:42:00,
2013-02-10 05:52:00,18.0,8.0,29.70,NW,309,0.0,3.0,64,0.00,,,0.00,,2013-02-10 12:52:00,
2013-02-10 06:02:00,18.0,8.0,29.70,NW,309,0.0,3.0,64,0.00,,,0.00,,2013-02-10 13:02:00,
2013-02-10 06:11:00,18.0,8.0,29.70,NW,309,0.0,3.0,64,0.00,,,0.00,,2013-02-10 13:11:00,
2013-02-10 06:21:00,16.0,8.0,29.71,NW,312,0.0,2.0,69,0.00,,,0.00,,2013-02-10 13:21:00,
2013-02-10 06:31:00,16.0,8.0,29.72,ENE,60,0.0,2.0,70,0.00,,,0.00,,2013-02-10 13:31:00,
2013-02-10 06:41:00,16.0,8.0,29.72,ENE,60,0.0,2.0,70,0.00,,,0.00,,2013-02-10 13:41:00,
2013-02-10 06:51:00,15.0,9.0,29.73,WNW,300,1.0,5.0,75,0.00,,,0.00,,2013-02-10 13:51:00,
2013-02-10 07:02:00,15.0,8.0,29.75,North,8,0.0,1.0,73,0.00,,,0.00,,2013-02-10 14:02:00,
2013-02-10 07:11:00,15.0,8.0,29.75,North,8,0.0,1.0,73,0.00,,,0.00,,2013-02-10 14:11:00,
2013-02-10 07:21:00,16.0,7.0,29.76,NNE,32,0.0,1.0,66,0.00,,,0.00,,2013-02-10 14:21:00,
2013-02-10 07:32:00,17.0,7.0,29.77,NE,36,0.0,2.0,64,0.00,,,0.00,,2013-02-10 14:32:00,
2013-02-10 07:41:00,17.0,7.0,29.77,NE,36,0.0,2.0,64,0.00,,,0.00,,2013-02-10 14:41:00,
2013-02-10 07:52:00,17.0,6.0,29.77,WNW,297,1.0,4.0,61,0.00,,,0.00,,2013-02-10 14:52:00,
2013-02-10 08:02:00,18.0,6.0,29.78,NNW,328,1.0,3.0,60,0.00,,,0.00,,2013-02-10 15:02:00,
2013-02-10 08:11:00,18.0,6.0,29.78,NNW,328,1.0,3.0,60,0.00,,,0.00,,2013-02-10 15:11:00,
2013-02-10 08:21:00,19.0,7.0,29.79,WNW,295,0.0,3.0,59,0.00,,,0.00,,2013-02-10 15:21:00,
2013-02-10 08:32:00,19.0,8.0,29.80,WNW,288,0.0,2.0,62,0.00,,,0.00,,2013-02-10 15:32:00,
2013-02-10 08:42:00,19.0,8.0,29.80,WNW,288,0.0,2.0,62,0.00,,,0.00,,2013-02-10 15:42:00,
2013-02-10 08:52:00,19.0,10.0,29.82,ENE,77,1.0,5.0,66,0.00,,,0.00,,2013-02-10 15:52:00,
2013-02-10 09:02:00,18.0,11.0,29.83,SE,131,1.0,8.0,72,0.00,,,0.00,,2013-02-10 16:02:00,
2013-02-10 09:11:00,18.0,11.0,29.83,SE,131,1.0,8.0,72,0.00,,,0.00,,2013-02-10 16:11:00,
2013-02-10 09:22:00,18.0,11.0,29.83,SE,131,1.0,8.0,72,0.00,,,0.00,,2013-02-10 16:22:00,
2013-02-10 09:32:00,19.0,11.0,29.84,South,170,5.0,8.0,71,0.00,,,0.00,,2013-02-10 16:32:00,
2013-02-10 09:42:00,20.0,12.0,29.85,ESE,107,0.0,4.0,70,0.00,,,0.00,,2013-02-10 16:42:00,
2013-02-10 09:52:00,20.0,12.0,29.85,ESE,107,0.0,4.0,70,0.00,,,0.00,,2013-02-10 16:52:00,
2013-02-10 10:01:00,21.0,12.0,29.85,NNW,347,0.0,3.0,67,0.00,,,0.00,,2013-02-10 17:01:00,
2013-02-10 10:11:00,21.0,12.0,29.85,NNW,347,0.0,3.0,67,0.00,,,0.00,,2013-02-10 17:11:00,
2013-02-10 10:22:00,20.0,12.0,29.86,SSE,149,2.0,5.0,70,0.00,,,0.00,,2013-02-10 17:22:00,
2013-02-10 10:32:00,20.0,12.0,29.86,SSE,149,2.0,5.0,70,0.00,,,0.00,,2013-02-10 17:32:00,
2013-02-10 10:42:00,21.0,13.0,29.88,SE,142,2.0,4.0,72,0.00,,,0.00,,2013-02-10 17:42:00,
2013-02-10 10:52:00,21.0,13.0,29.88,SE,142,2.0,4.0,72,0.00,,,0.00,,2013-02-10 17:52:00,
2013-02-10 11:02:00,21.0,13.0,29.88,SSE,162,2.0,4.0,72,0.00,,,0.00,,2013-02-10 18:02:00,
2013-02-10 11:11:00,22.0,14.0,29.88,SE,131,1.0,4.0,72,0.00,,,0.00,,2013-02-10 18:11:00,
2013-02-10 11:22:00,22.0,14.0,29.88,SE,131,1.0,4.0,72,0.00,,,0.00,,2013-02-10 18:22:00,
2013-02-10 11:32:00,22.0,13.0,29.88,SE,124,1.0,7.0,67,0.00,,,0.00,,2013-02-10 18:32:00,
2013-02-10 11:42:00,22.0,13.0,29.88,SE,124,1.0,7.0,67,0.00,,,0.00,,2013-02-10 18:42:00,
2013-02-10 11:52:00,21.0,12.0,29.88,NE,53,2.0,6.0,68,0.00,,,0.00,,2013-02-10 18:52:00,
2013-02-10 12:02:00,20.0,12.0,29.89,NE,46,3.0,6.0,71,0.00,,,0.00,,2013-02-10 19:02:00,
2013-02-10 12:11:00,19.0,12.0,29.88,NNW,335,2.0,8.0,75,0.00,,,0.00,,2013-02-10 19:11:00,
2013-02-10 12:22:00,19.0,12.0,29.88,NNW,335,2.0,8.0,75,0.00,,,0.00,,2013-02-10 19:22:00,
2013-02-10 12:32:00,19.0,11.0,29.88,ENE,71,1.0,6.0,72,0.00,,,0.00,,2013-02-10 19:32:00,
2013-02-10 12:42:00,21.0,12.0,29.88,SE,125,1.0,5.0,68,0.00,,,0.00,,2013-02-10 19:42:00,
2013-02-10 12:52:00,21.0,12.0,29.88,SE,125,1.0,5.0,68,0.00,,,0.00,,2013-02-10 19:52:00,
2013-02-10 13:02:00,22.0,12.0,29.88,SE,131,2.0,6.0,64,0.00,,,0.00,,2013-02-10 20:02:00,
2013-02-10 13:11:00,22.0,12.0,29.88,SE,131,2.0,6.0,64,0.00,,,0.00,,2013-02-10 20:11:00,
2013-02-10 13:22:00,23.0,12.0,29.88,SE,138,2.0,5.0,61,0.00,,,0.00,,2013-02-10 20:22:00,
2013-02-10 13:32:00,21.0,10.0,29.88,South,186,1.0,9.0,63,0.00,,,0.00,,2013-02-10 20:32:00,
2013-02-10 13:42:00,21.0,11.0,29.89,SSE,158,2.0,5.0,64,0.00,,,0.00,,2013-02-10 20:42:00,
2013-02-10 13:52:00,21.0,11.0,29.89,SSE,158,2.0,5.0,64,0.00,,,0.00,,2013-02-10 20:52:00,
2013-02-10 14:02:00,20.0,11.0,29.90,SE,142,2.0,5.0,69,0.00,,,0.00,,2013-02-10 21:02:00,
2013-02-10 14:11:00,20.0,11.0,29.90,SE,142,2.0,5.0,69,0.00,,,0.00,,2013-02-10 21:11:00,
2013-02-10 14:21:00,19.0,11.0,29.91,ENE,70,2.0,5.0,72,0.00,,,0.00,,2013-02-10 21:21:00,
2013-02-10 14:32:00,18.0,13.0,29.91,NE,51,2.0,5.0,79,0.00,,,0.00,,2013-02-10 21:32:00,
2013-02-10 14:42:00,19.0,14.0,29.92,SSE,155,0.0,4.0,80,0.00,,,0.00,,2013-02-10 21:42:00,
2013-02-10 14:51:00,19.0,14.0,29.92,SSE,155,0.0,4.0,80,0.00,,,0.00,,2013-02-10 21:51:00,
2013-02-10 15:02:00,19.0,13.0,29.93,SSE,160,1.0,5.0,77,0.00,,,0.00,,2013-02-10 22:02:00,
2013-02-10 15:11:00,19.0,11.0,29.93,SSE,149,2.0,4.0,72,0.00,,,0.00,,2013-02-10 22:11:00,
2013-02-10 15:21:00,19.0,11.0,29.93,SSE,149,2.0,4.0,72,0.00,,,0.00,,2013-02-10 22:21:00,
2013-02-10 15:32:00,20.0,11.0,29.94,SSE,165,1.0,3.0,67,0.00,,,0.00,,2013-02-10 22:32:00,
2013-02-10 15:42:00,20.0,10.0,29.94,SSE,162,2.0,7.0,65,0.00,,,0.00,,2013-02-10 22:42:00,
2013-02-10 15:52:00,20.0,10.0,29.94,SSE,162,2.0,7.0,65,0.00,,,0.00,,2013-02-10 22:52:00,
2013-02-10 16:02:00,20.0,11.0,29.95,SSE,148,1.0,5.0,67,0.00,,,0.00,,2013-02-10 23:02:00,
2013-02-10 16:11:00,20.0,11.0,29.95,SSE,148,1.0,5.0,67,0.00,,,0.00,,2013-02-10 23:11:00,
2013-02-10 16:22:00,19.0,11.0,29.96,SE,135,2.0,5.0,71,0.00,,,0.00,,2013-02-10 23:22:00,
2013-02-10 16:32:00,19.0,11.0,29.96,SSE,153,3.0,6.0,72,0.00,,,0.00,,2013-02-10 23:32:00,
2013-02-10 16:42:00,18.0,11.0,29.97,SSE,148,3.0,8.0,73,0.00,,,0.00,,2013-02-10 23:42:00,
2013-02-10 16:52:00,18.0,11.0,29.97,SSE,148,3.0,8.0,73,0.00,,,0.00,,2013-02-10 23:52:00,
2013-02-10 17:02:00,18.0,11.0,29.98,SE,146,0.0,5.0,74,0.00,,,0.00,,2013-02-11 00:02:00,
2013-02-10 17:11:00,18.0,11.0,29.98,East,99,1.0,4.0,72,0.00,,,0.00,,2013-02-11 00:11:00,
2013-02-10 17:22:00,18.0,11.0,29.98,East,99,1.0,4.0,72,0.00,,,0.00,,2013-02-11 00:22:00,
2013-02-10 17:32:00,18.0,11.0,29.98,ESE,116,0.0,4.0,72,0.00,,,0.00,,2013-02-11 00:32:00,
2013-02-10 17:42:00,18.0,11.0,29.98,ESE,116,0.0,4.0,72,0.00,,,0.00,,2013-02-11 00:42:00,
2013-02-10 17:51:00,17.0,10.0,30.00,SSE,163,1.0,3.0,74,0.00,,,0.00,,2013-02-11 00:51:00,
2013-02-10 18:01:00,17.0,11.0,30.00,ESE,120,0.0,1.0,78,0.00,,,0.00,,2013-02-11 01:01:00,
2013-02-10 18:11:00,17.0,11.0,30.00,ESE,120,0.0,1.0,78,0.00,,,0.00,,2013-02-11 01:11:00,
2013-02-10 18:21:00,16.0,10.0,30.01,NW,325,0.0,1.0,77,0.00,,,0.00,,2013-02-11 01:21:00,
2013-02-10 18:32:00,15.0,9.0,30.02,NW,309,0.0,1.0,78,0.00,,,0.00,,2013-02-11 01:32:00,
2013-02-10 18:41:00,14.0,9.0,30.03,NW,315,0.0,1.0,80,0.00,,,0.00,,2013-02-11 01:41:00,
2013-02-10 18:52:00,14.0,9.0,30.03,NW,315,0.0,1.0,80,0.00,,,0.00,,2013-02-11 01:52:00,
2013-02-10 19:01:00,14.0,9.0,30.03,NW,315,0.0,1.0,80,0.00,,,0.00,,2013-02-11 02:01:00,
2013-02-10 19:11:00,14.0,9.0,30.03,NW,315,0.0,1.0,80,0.00,,,0.00,,2013-02-11 02:11:00,
2013-02-10 19:21:00,13.0,9.0,30.04,East,96,0.0,1.0,82,0.00,,,0.00,,2013-02-11 02:21:00,
2013-02-10 19:32:00,12.0,8.0,30.05,WNW,293,1.0,2.0,83,0.00,,,0.00,,2013-02-11 02:32:00,
2013-02-10 19:42:00,13.0,9.0,30.05,SSE,163,0.0,3.0,85,0.00,,,0.00,,2013-02-11 02:42:00,
2013-02-10 19:52:00,13.0,9.0,30.05,SSE,163,0.0,3.0,85,0.00,,,0.00,,2013-02-11 02:52:00,
2013-02-10 20:02:00,13.0,10.0,30.06,SE,127,1.0,4.0,86,0.00,,,0.00,,2013-02-11 03:02:00,
2013-02-10 20:11:00,13.0,10.0,30.06,SE,127,1.0,4.0,86,0.00,,,0.00,,2013-02-11 03:11:00,
2013-02-10 20:21:00,13.0,9.0,30.06,ESE,107,3.0,5.0,85,0.00,,,0.00,,2013-02-11 03:21:00,
2013-02-10 20:31:00,14.0,11.0,30.07,East,92,1.0,7.0,86,0.00,,,0.00,,2013-02-11 03:31:00,
2013-02-10 20:42:00,13.0,9.0,30.08,East,98,2.0,8.0,85,0.00,,,0.00,,2013-02-11 03:42:00,
2013-02-10 20:52:00,13.0,9.0,30.08,East,98,2.0,8.0,85,0.00,,,0.00,,2013-02-11 03:52:00,
2013-02-10 21:01:00,13.0,10.0,30.09,SE,128,3.0,9.0,86,0.00,,,0.00,,2013-02-11 04:01:00,
2013-02-10 21:11:00,13.0,10.0,30.09,SE,128,3.0,9.0,86,0.00,,,0.00,,2013-02-11 04:11:00,
2013-02-10 21:21:00,13.0,10.0,30.09,SE,139,2.0,8.0,86,0.00,,,0.00,,2013-02-11 04:21:00,
2013-02-10 21:32:00,13.0,10.0,30.10,ESE,105,1.0,7.0,86,0.00,,,0.00,,2013-02-11 04:32:00,
2013-02-10 21:42:00,13.0,10.0,30.10,ESE,105,1.0,7.0,86,0.00,,,0.00,,2013-02-11 04:42:00,
2013-02-10 21:51:00,13.0,10.0,30.10,ESE,110,1.0,6.0,86,0.00,,,0.00,,2013-02-11 04:51:00,
2013-02-10 22:01:00,13.0,10.0,30.10,ESE,110,3.0,6.0,86,0.00,,,0.00,,2013-02-11 05:01:00,
2013-02-10 22:12:00,13.0,10.0,30.11,SE,126,2.0,8.0,87,0.00,,,0.00,,2013-02-11 05:12:00,
2013-02-10 22:22:00,13.0,10.0,30.11,SE,126,2.0,8.0,87,0.00,,,0.00,,2013-02-11 05:22:00,
2013-02-10 22:32:00,12.0,9.0,30.11,ESE,123,1.0,7.0,87,0.00,,,0.00,,2013-02-11 05:32:00,
2013-02-10 22:42:00,12.0,9.0,30.11,ESE,123,1.0,7.0,87,0.00,,,0.00,,2013-02-11 05:42:00,
2013-02-10 22:52:00,12.0,9.0,30.11,NNE,20,2.0,6.0,87,0.00,,,0.00,,2013-02-11 05:52:00,
2013-02-10 23:02:00,12.0,9.0,30.11,ESE,113,4.0,8.0,88,0.00,,,0.00,,2013-02-11 06:02:00,
2013-02-10 23:11:00,12.0,9.0,30.11,ESE,113,4.0,8.0,88,0.00,,,0.00,,2013-02-11 06:11:00,
2013-02-10 23:21:00,12.0,9.0,30.12,SE,127,5.0,11.0,89,0.00,,,0.00,,2013-02-11 06:21:00,
2013-02-10 23:32:00,12.0,9.0,30.11,East,96,5.0,8.0,89,0.00,,,0.00,,2013-02-11 06:32:00,
2013-02-10 23:42:00,12.0,9.0,30.12,ESE,116,4.0,8.0,89,0.00,,,0.00,,2013-02-11 06:42:00,
2013-02-10 23:52:00,12.0,9.0,30.12,ESE,116,4.0,8.0,89,0.00,,,0.00,,2013-02-11 06:52:00,